createdAt,value
2023-03-30T00:00:18.798Z,91.10
2023-03-30T00:02:50.836Z,84.37
2023-03-30T00:05:18.794Z,82.90
2023-03-30T00:07:46.233Z,85.47
2023-03-30T00:10:14.694Z,92.93
2023-03-30T00:12:43.790Z,88.17
2023-03-30T00:15:12.405Z,79.53
2023-03-30T00:17:40.021Z,92.70
2023-03-30T00:20:12.587Z,91.63
2023-03-30T00:22:40.216Z,87.50
2023-03-30T00:25:08.775Z,87.20
2023-03-30T00:27:36.778Z,88.80
2023-03-30T00:30:04.878Z,91.10
2023-03-30T00:32:32.497Z,88.23
2023-03-30T00:34:59.680Z,84.23
2023-03-30T00:37:27.612Z,84.23
2023-03-30T00:39:54.771Z,90.93
2023-03-30T00:42:22.072Z,87.33
2023-03-30T00:45:08.211Z,89.30
2023-03-30T00:47:42.831Z,95.27
2023-03-30T00:50:12.602Z,98.40
2023-03-30T00:52:39.737Z,87.33
2023-03-30T00:55:07.866Z,94.37
2023-03-30T00:57:36.434Z,97.57
2023-03-30T01:00:06.928Z,84.77
2023-03-30T01:02:34.209Z,83.93
2023-03-30T01:05:01.406Z,82.97
2023-03-30T01:07:29.869Z,69.47
2023-03-30T01:09:57.407Z,65.77
2023-03-30T01:12:24.530Z,66.20
2023-03-30T01:14:51.940Z,77.20
2023-03-30T01:17:26.365Z,75.70
2023-03-30T01:20:13.191Z,71.53
2023-03-30T01:22:50.231Z,74.80
2023-03-30T01:25:34.179Z,73.80
2023-03-30T01:28:22.004Z,80.20
2023-03-30T01:31:15.996Z,85.27
2023-03-30T01:33:43.337Z,79.27
2023-03-30T01:36:28.665Z,121.07
2023-03-30T01:39:11.536Z,124.03
2023-03-30T01:41:42.324Z,113.73
2023-03-30T01:44:09.451Z,118.87
2023-03-30T01:46:41.072Z,119.83
2023-03-30T01:49:08.241Z,112.90
2023-03-30T01:51:36.677Z,103.13
2023-03-30T01:54:18.360Z,141.53
2023-03-30T01:56:48.254Z,146.90
2023-03-30T01:59:18.524Z,121.57
2023-03-30T02:01:50.277Z,117.40
2023-03-30T02:04:17.619Z,161.27
2023-03-30T02:06:48.578Z,161.93
2023-03-30T02:09:16.344Z,142.20
2023-03-30T02:11:44.704Z,137.50
2023-03-30T02:14:12.167Z,156.83
2023-03-30T02:16:42.774Z,142.87
2023-03-30T02:19:10.013Z,114.03
2023-03-30T02:21:37.211Z,85.00
2023-03-30T02:24:05.100Z,84.40
2023-03-30T02:26:32.531Z,65.77
2023-03-30T02:28:59.712Z,105.97
2023-03-30T02:31:26.871Z,99.60
2023-03-30T02:34:06.545Z,81.23
2023-03-30T02:36:52.441Z,70.80
2023-03-30T02:39:46.928Z,46.37
2023-03-30T02:42:27.145Z,25.23
2023-03-30T02:45:09.625Z,26.77
2023-03-30T02:47:39.493Z,29.60
2023-03-30T02:50:09.969Z,50.13
2023-03-30T02:53:06.675Z,51.73
2023-03-30T02:55:38.079Z,50.00
2023-03-30T02:58:14.669Z,41.27
2023-03-30T03:00:48.025Z,55.27
2023-03-30T03:03:17.417Z,55.43
2023-03-30T03:05:44.838Z,45.87
2023-03-30T03:08:14.687Z,47.30
2023-03-30T03:10:41.804Z,49.43
2023-03-30T03:13:09.995Z,44.70
2023-03-30T03:15:38.040Z,48.93
2023-03-30T03:18:06.105Z,51.43
2023-03-30T03:20:33.557Z,49.33
2023-03-30T03:23:00.916Z,42.33
2023-03-30T03:25:28.056Z,44.60
2023-03-30T03:27:55.198Z,44.37
2023-03-30T03:30:22.365Z,48.33
2023-03-30T03:32:49.980Z,50.93
2023-03-30T03:35:17.259Z,58.27
2023-03-30T03:37:44.442Z,51.27
2023-03-30T03:40:11.691Z,54.17
2023-03-30T03:42:38.897Z,51.20
2023-03-30T03:45:06.422Z,56.87
2023-03-30T03:47:33.858Z,49.77
2023-03-30T03:50:06.931Z,50.30
2023-03-30T03:52:34.103Z,50.50
2023-03-30T03:55:01.267Z,45.13
2023-03-30T03:57:28.504Z,50.03
2023-03-30T03:59:59.605Z,39.53
2023-03-30T04:02:27.680Z,39.57
2023-03-30T04:04:55.753Z,40.63
2023-03-30T04:07:25.537Z,37.37
2023-03-30T04:09:52.749Z,36.77
2023-03-30T04:12:20.602Z,38.33
2023-03-30T04:14:47.756Z,36.47
2023-03-30T04:17:15.120Z,41.67
2023-03-30T04:19:42.330Z,32.97
2023-03-30T04:22:09.631Z,27.97
2023-03-30T04:24:36.755Z,30.00
2023-03-30T04:27:03.988Z,30.13
2023-03-30T04:29:31.176Z,35.33
2023-03-30T04:32:02.757Z,28.63
2023-03-30T04:34:31.059Z,29.83
2023-03-30T04:36:58.472Z,33.47
2023-03-30T04:39:30.221Z,26.77
2023-03-30T04:41:57.800Z,28.37
2023-03-30T04:44:24.974Z,29.73
2023-03-30T04:46:52.150Z,29.50
2023-03-30T04:49:19.880Z,27.10
2023-03-30T04:51:47.082Z,30.70
2023-03-30T04:54:14.319Z,32.77
2023-03-30T04:56:41.611Z,37.57
2023-03-30T04:59:08.848Z,34.67
2023-03-30T05:01:36.064Z,40.63
2023-03-30T05:04:03.233Z,55.30
2023-03-30T05:06:30.866Z,50.83
2023-03-30T05:08:58.075Z,65.07
2023-03-30T05:11:25.283Z,79.07
2023-03-30T05:13:52.871Z,82.13
2023-03-30T05:16:20.142Z,80.40
2023-03-30T05:18:49.442Z,90.60
2023-03-30T05:21:18.572Z,110.67
2023-03-30T05:23:45.748Z,107.43
2023-03-30T05:26:12.933Z,74.87
2023-03-30T05:28:40.423Z,39.97
2023-03-30T05:31:07.930Z,42.53
2023-03-30T05:33:35.617Z,32.00
2023-03-30T05:36:02.823Z,34.23
2023-03-30T05:38:30.002Z,38.37
2023-03-30T05:40:57.268Z,30.53
2023-03-30T05:43:24.452Z,28.13
2023-03-30T05:45:51.614Z,33.03
2023-03-30T05:48:18.853Z,37.03
2023-03-30T05:50:48.087Z,40.93
2023-03-30T05:53:15.525Z,54.30
2023-03-30T05:55:46.844Z,55.90
2023-03-30T05:58:14.213Z,58.00
2023-03-30T06:00:41.956Z,64.03
2023-03-30T06:03:09.810Z,68.30
2023-03-30T06:05:39.019Z,70.03
2023-03-30T06:08:08.130Z,64.57
2023-03-30T06:10:35.680Z,65.73
2023-03-30T06:13:02.907Z,53.80
2023-03-30T06:15:30.066Z,45.50
2023-03-30T06:17:59.247Z,32.87
2023-03-30T06:20:26.514Z,29.23
2023-03-30T06:22:53.732Z,44.13
2023-03-30T06:25:21.126Z,50.17
2023-03-30T06:27:48.277Z,62.30
2023-03-30T06:30:16.076Z,52.63
2023-03-30T06:32:43.543Z,58.07
2023-03-30T06:35:10.713Z,59.67
2023-03-30T06:37:38.044Z,57.33
2023-03-30T06:40:12.597Z,58.40
2023-03-30T06:42:44.360Z,69.30
2023-03-30T06:45:12.071Z,68.83
2023-03-30T06:47:39.389Z,59.67
2023-03-30T06:50:06.958Z,58.13
2023-03-30T06:52:37.620Z,103.37
2023-03-30T06:55:05.251Z,128.00
2023-03-30T06:57:32.522Z,130.80
2023-03-30T06:59:59.755Z,140.27
2023-03-30T07:02:27.478Z,86.97
2023-03-30T07:04:54.803Z,76.07
2023-03-30T07:07:22.252Z,77.50
2023-03-30T07:09:49.488Z,73.07
2023-03-30T07:12:16.659Z,79.40
2023-03-30T07:14:43.835Z,81.50
2023-03-30T07:17:11.573Z,52.20
2023-03-30T07:19:38.831Z,65.70
2023-03-30T07:22:06.010Z,45.43
2023-03-30T07:24:33.800Z,30.37
2023-03-30T07:27:01.140Z,161.88
2023-03-30T07:29:29.272Z,59.10
2023-03-30T07:31:56.802Z,33.83
2023-03-30T07:34:24.100Z,15.37
2023-03-30T07:36:51.223Z,10.65
2023-03-30T07:39:18.647Z,11.45
2023-03-30T07:41:45.844Z,10.45
2023-03-30T07:44:13.072Z,9.77
2023-03-30T07:46:41.227Z,12.80
2023-03-30T07:49:08.552Z,9.95
2023-03-30T07:51:35.674Z,10.55
2023-03-30T07:54:02.854Z,9.68
2023-03-30T07:56:30.265Z,18.75
2023-03-30T07:58:58.498Z,11.43
2023-03-30T08:01:27.924Z,11.05
2023-03-30T08:03:55.568Z,10.45
2023-03-30T08:06:23.359Z,9.18
2023-03-30T08:08:50.911Z,8.73
2023-03-30T08:11:18.150Z,9.80
2023-03-30T08:13:45.334Z,9.00
2023-03-30T08:16:12.692Z,7.90
2023-03-30T08:18:42.737Z,10.05
2023-03-30T08:21:11.065Z,6.07
2023-03-30T08:23:38.274Z,4.80
2023-03-30T08:26:06.216Z,5.47
2023-03-30T08:28:34.119Z,5.00
2023-03-30T08:31:05.891Z,5.22
2023-03-30T08:33:33.620Z,4.22
2023-03-30T08:36:00.777Z,6.25
2023-03-30T08:38:27.966Z,4.35
2023-03-30T08:40:55.546Z,2.85
2023-03-30T08:43:38.132Z,2.72
2023-03-30T08:46:05.556Z,6.70
2023-03-30T08:48:34.007Z,4.65
2023-03-30T08:51:16.500Z,3.63
2023-03-30T08:53:43.669Z,3.50
2023-03-30T08:56:11.017Z,3.60
2023-03-30T08:58:41.490Z,3.38
2023-03-30T09:01:25.237Z,2.63
2023-03-30T09:03:52.449Z,3.97
2023-03-30T09:06:19.694Z,10.55
2023-03-30T09:08:47.001Z,3.95
2023-03-30T09:11:15.436Z,2.17
2023-03-30T09:13:45.315Z,3.10
2023-03-30T09:16:22.565Z,6.88
2023-03-30T09:18:53.804Z,3.25
2023-03-30T09:21:22.440Z,6.63
2023-03-30T09:23:49.576Z,3.22
2023-03-30T09:26:16.699Z,2.58
2023-03-30T09:28:56.246Z,3.80
2023-03-30T09:31:36.132Z,5.80
2023-03-30T09:34:04.913Z,3.50
2023-03-30T09:37:09.044Z,3.83
2023-03-30T09:39:36.469Z,5.82
2023-03-30T09:42:06.610Z,3.05
2023-03-30T09:44:42.070Z,3.65
2023-03-30T09:47:27.812Z,5.90
2023-03-30T09:49:58.845Z,3.10
2023-03-30T09:52:27.048Z,3.38
2023-03-30T09:54:54.296Z,4.60
2023-03-30T09:57:25.789Z,2.35
2023-03-30T09:59:55.879Z,3.08
2023-03-30T10:02:23.815Z,2.63
2023-03-30T10:04:54.226Z,2.00
2023-03-30T10:07:24.792Z,3.22
2023-03-30T10:09:52.362Z,1.75
2023-03-30T10:12:19.632Z,2.55
2023-03-30T10:14:46.754Z,2.60
2023-03-30T10:17:24.743Z,3.17
2023-03-30T10:20:07.315Z,2.88
2023-03-30T10:22:49.177Z,2.33
2023-03-30T10:25:19.151Z,7.30
2023-03-30T10:27:46.311Z,4.50
2023-03-30T10:30:18.473Z,5.35
2023-03-30T10:32:46.926Z,3.65
2023-03-30T10:35:15.279Z,3.88
2023-03-30T10:37:43.794Z,3.50
2023-03-30T10:40:17.530Z,3.33
2023-03-30T10:42:44.837Z,3.58
2023-03-30T10:45:16.923Z,2.38
2023-03-30T10:48:05.489Z,3.78
2023-03-30T10:50:47.736Z,3.78
2023-03-30T10:53:30.484Z,3.53
2023-03-30T10:56:07.017Z,4.22
2023-03-30T10:58:49.575Z,4.00
2023-03-30T11:01:16.906Z,2.22
2023-03-30T11:03:45.751Z,3.92
2023-03-30T11:06:23.255Z,5.53
2023-03-30T11:08:51.334Z,3.00
2023-03-30T11:11:27.292Z,1.85
2023-03-30T11:14:01.939Z,2.67
2023-03-30T11:16:37.135Z,3.88
2023-03-30T11:19:05.915Z,3.97
2023-03-30T11:21:51.842Z,2.47
2023-03-30T11:24:20.806Z,4.68
2023-03-30T11:26:59.928Z,3.17
2023-03-30T11:29:42.939Z,4.22
2023-03-30T11:32:30.401Z,3.90
2023-03-30T11:35:07.220Z,5.70
2023-03-30T11:37:43.516Z,1.73
2023-03-30T11:40:15.406Z,2.15
2023-03-30T11:42:43.157Z,1.50
2023-03-30T11:45:22.053Z,2.75
2023-03-30T11:47:52.628Z,1.52
2023-03-30T11:50:24.047Z,2.35
2023-03-30T11:52:57.949Z,2.88
2023-03-30T11:55:25.147Z,1.77
2023-03-30T11:58:06.199Z,3.30
2023-03-30T12:00:34.575Z,4.43
2023-03-30T12:03:20.250Z,1.95
2023-03-30T12:05:48.755Z,2.83
2023-03-30T12:08:34.688Z,1.98
2023-03-30T12:11:28.299Z,3.67
2023-03-30T12:13:55.507Z,2.58
2023-03-30T12:16:28.133Z,3.40
2023-03-30T12:18:55.915Z,6.00
2023-03-30T12:21:29.258Z,5.88
2023-03-30T12:24:01.107Z,3.60
2023-03-30T12:26:31.537Z,3.20
2023-03-30T12:29:40.518Z,4.15
2023-03-30T12:31:50.216Z,8.48
2023-03-30T12:34:17.505Z,4.47
2023-03-30T12:37:05.156Z,4.63
2023-03-30T12:39:36.972Z,5.70
2023-03-30T12:42:08.231Z,5.25
2023-03-30T12:44:36.494Z,6.47
2023-03-30T12:47:12.144Z,5.22
2023-03-30T12:49:48.776Z,4.30
2023-03-30T12:52:16.050Z,5.07
2023-03-30T12:54:46.267Z,4.35
2023-03-30T12:57:32.393Z,4.35
2023-03-30T13:00:02.767Z,6.00
2023-03-30T13:02:29.924Z,5.35
2023-03-30T13:04:58.210Z,7.53
2023-03-30T13:07:26.047Z,4.82
2023-03-30T13:09:57.742Z,7.03
2023-03-30T13:12:27.773Z,4.13
2023-03-30T13:15:06.081Z,3.63
2023-03-30T13:17:52.044Z,4.35
2023-03-30T13:20:30.137Z,7.20
2023-03-30T13:23:01.091Z,17.17
2023-03-30T13:25:38.950Z,8.90
2023-03-30T13:28:24.805Z,5.28
2023-03-30T13:30:51.985Z,4.47
2023-03-30T13:33:19.935Z,4.43
2023-03-30T13:35:59.543Z,4.32
2023-03-30T13:38:36.004Z,8.50
2023-03-30T13:41:06.200Z,6.25
2023-03-30T13:43:48.423Z,8.85
2023-03-30T13:46:20.238Z,7.03
2023-03-30T13:48:53.387Z,9.70
2023-03-30T13:51:21.547Z,7.63
2023-03-30T13:53:50.063Z,6.95
2023-03-30T13:56:17.195Z,5.25
2023-03-30T13:58:46.908Z,7.82
2023-03-30T14:01:14.263Z,5.20
2023-03-30T14:03:44.875Z,5.88
2023-03-30T14:06:15.269Z,4.25
2023-03-30T14:08:44.985Z,6.68
2023-03-30T14:11:22.145Z,5.75
2023-03-30T14:13:50.690Z,4.85
2023-03-30T14:16:19.630Z,11.07
2023-03-30T14:18:46.840Z,6.97
2023-03-30T14:21:16.046Z,6.20
2023-03-30T14:23:48.466Z,6.57
2023-03-30T14:26:16.641Z,9.07
2023-03-30T14:28:44.148Z,6.15
2023-03-30T14:31:18.733Z,12.68
2023-03-30T14:33:46.135Z,20.77
2023-03-30T14:36:16.840Z,6.55
2023-03-30T14:38:47.966Z,12.55
2023-03-30T14:41:16.880Z,14.90
2023-03-30T14:43:44.871Z,10.13
2023-03-30T14:46:12.519Z,17.63
2023-03-30T14:48:41.598Z,8.55
2023-03-30T14:51:20.480Z,9.55
2023-03-30T14:53:47.781Z,10.43
2023-03-30T14:56:14.973Z,7.13
2023-03-30T14:58:42.143Z,6.63
2023-03-30T15:01:10.041Z,9.48
2023-03-30T15:03:37.663Z,6.40
2023-03-30T15:06:05.923Z,4.85
2023-03-30T15:08:33.810Z,7.50
2023-03-30T15:11:13.650Z,7.72
2023-03-30T15:13:41.775Z,17.45
2023-03-30T15:16:09.018Z,7.95
2023-03-30T15:18:36.190Z,54.80
2023-03-30T15:21:03.526Z,9.52
2023-03-30T15:23:41.074Z,8.43
2023-03-30T15:26:08.671Z,16.02
2023-03-30T15:29:02.220Z,8.93
2023-03-30T15:31:29.477Z,9.10
2023-03-30T15:34:01.034Z,12.27
2023-03-30T15:36:34.299Z,7.40
2023-03-30T15:39:01.526Z,10.15
2023-03-30T15:41:45.231Z,5.97
2023-03-30T15:44:12.934Z,11.02
2023-03-30T15:46:40.909Z,13.10
2023-03-30T15:49:08.328Z,9.23
2023-03-30T15:51:45.294Z,6.40
2023-03-30T15:54:13.771Z,5.35
2023-03-30T15:56:53.267Z,6.57
2023-03-30T15:59:21.409Z,11.80
2023-03-30T16:01:49.633Z,7.93
2023-03-30T16:04:18.416Z,8.98
2023-03-30T16:06:47.468Z,9.90
2023-03-30T16:09:15.054Z,11.15
2023-03-30T16:11:42.249Z,11.32
2023-03-30T16:14:11.634Z,8.75
2023-03-30T16:16:38.840Z,9.18
2023-03-30T16:19:10.492Z,10.70
2023-03-30T16:21:38.003Z,10.27
2023-03-30T16:24:06.015Z,13.43
2023-03-30T16:26:33.223Z,11.65
2023-03-30T16:29:00.543Z,11.27
2023-03-30T16:31:27.735Z,11.15
2023-03-30T16:33:54.891Z,11.35
2023-03-30T16:36:22.575Z,10.20
2023-03-30T16:38:49.756Z,11.57
2023-03-30T16:41:18.075Z,11.55
2023-03-30T16:43:45.339Z,7.50
2023-03-30T16:46:18.977Z,7.60
2023-03-30T16:48:46.571Z,8.40
2023-03-30T16:51:14.005Z,13.82
2023-03-30T16:53:41.531Z,8.85
2023-03-30T16:56:18.236Z,10.65
2023-03-30T16:58:45.928Z,7.82
2023-03-30T17:01:13.506Z,9.18
2023-03-30T17:03:40.722Z,9.57
2023-03-30T17:06:08.237Z,7.40
2023-03-30T17:08:35.581Z,9.05
2023-03-30T17:11:07.875Z,8.30
2023-03-30T17:13:35.210Z,9.65
2023-03-30T17:16:02.926Z,7.93
2023-03-30T17:18:30.332Z,8.00
2023-03-30T17:20:58.003Z,14.93
2023-03-30T17:23:25.989Z,16.35
2023-03-30T17:25:53.969Z,20.35
2023-03-30T17:28:21.812Z,20.70
2023-03-30T17:30:49.216Z,40.47
2023-03-30T17:33:16.433Z,34.75
2023-03-30T17:35:45.452Z,37.75
2023-03-30T17:38:12.651Z,54.58
2023-03-30T17:40:39.896Z,117.97
2023-03-30T17:43:07.556Z,49.20
2023-03-30T17:45:34.914Z,35.25
2023-03-30T17:48:02.804Z,25.52
2023-03-30T17:50:31.034Z,29.77
2023-03-30T17:52:58.351Z,28.02
2023-03-30T17:55:26.524Z,39.42
2023-03-30T17:57:53.688Z,49.20
2023-03-30T18:00:23.902Z,51.05
2023-03-30T18:02:51.611Z,43.05
2023-03-30T18:05:19.187Z,37.17
2023-03-30T18:07:46.407Z,48.15
2023-03-30T18:10:17.251Z,54.88
2023-03-30T18:12:44.459Z,51.53
2023-03-30T18:15:11.897Z,86.20
2023-03-30T18:17:39.162Z,140.73
2023-03-30T18:20:25.867Z,101.07
2023-03-30T18:22:53.126Z,42.85
2023-03-30T18:25:31.320Z,31.13
2023-03-30T18:27:59.116Z,14.73
2023-03-30T18:30:26.270Z,16.75
2023-03-30T18:32:53.507Z,18.85
2023-03-30T18:35:20.806Z,19.80
2023-03-30T18:37:48.141Z,19.50
2023-03-30T18:40:38.410Z,22.77
2023-03-30T18:43:05.923Z,42.33
2023-03-30T18:45:37.641Z,33.58
2023-03-30T18:48:05.586Z,29.10
2023-03-30T18:50:34.865Z,31.75
2023-03-30T18:53:02.539Z,28.00
2023-03-30T18:55:30.552Z,30.08
2023-03-30T18:57:59.353Z,24.73
2023-03-30T19:00:27.436Z,25.40
2023-03-30T19:02:54.980Z,29.70
2023-03-30T19:05:22.347Z,21.73
2023-03-30T19:07:49.583Z,18.05
2023-03-30T19:10:17.828Z,23.67
2023-03-30T19:12:45.046Z,25.38
2023-03-30T19:15:16.946Z,26.98
2023-03-30T19:17:44.172Z,18.48
2023-03-30T19:20:11.763Z,39.92
2023-03-30T19:22:38.892Z,19.85
2023-03-30T19:25:06.353Z,22.35
2023-03-30T19:27:33.477Z,21.02
2023-03-30T19:30:00.689Z,23.08
2023-03-30T19:32:28.186Z,17.63
2023-03-30T19:34:56.193Z,12.25
2023-03-30T19:37:23.512Z,14.48
2023-03-30T19:39:50.812Z,14.10
2023-03-30T19:42:18.002Z,15.10
2023-03-30T19:44:45.296Z,13.05
2023-03-30T19:47:12.502Z,14.55
2023-03-30T19:49:39.770Z,14.35
2023-03-30T19:52:07.876Z,16.02
2023-03-30T19:54:35.224Z,15.75
2023-03-30T19:57:02.476Z,14.57
2023-03-30T19:59:29.650Z,12.18
2023-03-30T20:01:56.857Z,13.02
2023-03-30T20:04:24.045Z,12.43
2023-03-30T20:06:51.737Z,12.90
2023-03-30T20:09:19.835Z,9.75
2023-03-30T20:11:47.219Z,13.27
2023-03-30T20:14:14.476Z,13.73
2023-03-30T20:16:41.779Z,21.67
2023-03-30T20:19:22.476Z,17.40
2023-03-30T20:21:56.565Z,13.40
2023-03-30T20:24:23.890Z,12.73
2023-03-30T20:26:51.141Z,14.63
2023-03-30T20:29:18.320Z,12.82
2023-03-30T20:31:46.294Z,11.73
2023-03-30T20:34:15.332Z,12.40
2023-03-30T20:36:42.884Z,11.23
2023-03-30T20:39:10.068Z,15.38
2023-03-30T20:41:40.079Z,10.60
2023-03-30T20:44:13.881Z,9.52
2023-03-30T20:46:43.310Z,10.82
2023-03-30T20:49:10.857Z,11.38
2023-03-30T20:51:39.952Z,10.13
2023-03-30T20:54:07.420Z,8.68
2023-03-30T20:56:34.551Z,7.35
2023-03-30T20:59:02.314Z,10.23
2023-03-30T21:01:30.167Z,8.60
2023-03-30T21:04:00.748Z,13.90
2023-03-30T21:06:28.608Z,22.80
2023-03-30T21:08:56.577Z,17.00
2023-03-30T21:11:24.351Z,19.50
2023-03-30T21:13:51.589Z,14.90
2023-03-30T21:16:18.962Z,12.02
2023-03-30T21:18:46.168Z,13.90
2023-03-30T21:21:13.340Z,12.27
2023-03-30T21:23:41.454Z,14.15
2023-03-30T21:26:09.202Z,10.75
2023-03-30T21:28:36.431Z,9.52
2023-03-30T21:31:05.642Z,8.95
2023-03-30T21:33:33.215Z,9.18
2023-03-30T21:36:00.677Z,7.78
2023-03-30T21:38:28.302Z,9.05
2023-03-30T21:41:08.548Z,8.65
2023-03-30T21:43:36.442Z,10.65
2023-03-30T21:46:05.036Z,13.57
2023-03-30T21:48:32.923Z,10.70
2023-03-30T21:51:00.895Z,12.52
2023-03-30T21:53:28.333Z,10.35
2023-03-30T21:55:55.510Z,11.48
2023-03-30T21:58:23.000Z,10.55
2023-03-30T22:00:58.389Z,9.55
2023-03-30T22:03:36.144Z,8.70
2023-03-30T22:06:04.797Z,9.15
2023-03-30T22:08:32.087Z,11.77
2023-03-30T22:11:00.270Z,9.07
2023-03-30T22:13:27.593Z,8.73
2023-03-30T22:15:58.835Z,11.13
2023-03-30T22:18:26.132Z,11.85
2023-03-30T22:20:53.293Z,9.43
2023-03-30T22:23:20.472Z,11.15
2023-03-30T22:25:47.722Z,9.18
2023-03-30T22:28:14.893Z,8.60
2023-03-30T22:30:42.819Z,8.50
2023-03-30T22:33:11.382Z,10.25
2023-03-30T22:35:42.226Z,9.23
2023-03-30T22:38:09.475Z,6.78
2023-03-30T22:40:36.780Z,11.75
2023-03-30T22:43:04.226Z,7.90
2023-03-30T22:45:31.606Z,10.52
2023-03-30T22:47:59.037Z,8.50
2023-03-30T22:50:27.526Z,7.78
2023-03-30T22:52:55.172Z,11.05
2023-03-30T22:55:22.436Z,10.85
2023-03-30T22:57:49.940Z,11.07
2023-03-30T23:00:17.922Z,10.50
2023-03-30T23:02:45.207Z,8.60
2023-03-30T23:05:14.989Z,6.65
2023-03-30T23:07:44.220Z,7.32
2023-03-30T23:10:13.588Z,8.15
2023-03-30T23:12:41.142Z,8.30
2023-03-30T23:15:08.889Z,9.10
2023-03-30T23:17:36.676Z,7.82
2023-03-30T23:20:05.468Z,6.18
2023-03-30T23:22:32.643Z,8.55
2023-03-30T23:24:59.827Z,10.68
2023-03-30T23:27:27.023Z,7.50
2023-03-30T23:29:54.200Z,7.70
2023-03-30T23:32:21.382Z,5.28
2023-03-30T23:34:48.543Z,7.80
2023-03-30T23:37:15.734Z,7.63
2023-03-30T23:39:42.900Z,7.50
2023-03-30T23:42:10.130Z,6.82
2023-03-30T23:44:37.270Z,11.55
2023-03-30T23:47:04.416Z,6.70
2023-03-30T23:49:31.658Z,7.53
2023-03-30T23:51:58.824Z,8.60
2023-03-30T23:54:25.995Z,8.55
2023-03-30T23:56:57.641Z,8.10
2023-03-30T23:59:25.368Z,10.00
